createdAt,value
2017-11-17T00:00:29.467Z,27.52
2017-11-17T00:01:29.461Z,27.80
2017-11-17T00:02:29.452Z,26.13
2017-11-17T00:03:29.448Z,25.91
2017-11-17T00:04:29.436Z,25.88
2017-11-17T00:05:30.083Z,26.03
2017-11-17T00:06:29.418Z,27.75
2017-11-17T00:07:29.412Z,26.00
2017-11-17T00:08:29.414Z,25.34
2017-11-17T00:09:29.397Z,26.34
2017-11-17T00:10:29.389Z,29.66
2017-11-17T00:11:29.387Z,26.66
2017-11-17T00:12:29.376Z,26.93
2017-11-17T00:13:29.369Z,29.00
2017-11-17T00:14:29.359Z,27.41
2017-11-17T00:15:29.363Z,28.52
2017-11-17T00:16:29.349Z,27.26
2017-11-17T00:17:29.341Z,28.26
2017-11-17T00:18:29.335Z,28.77
2017-11-17T00:19:29.321Z,26.65
2017-11-17T00:20:29.318Z,26.56
2017-11-17T00:21:29.308Z,27.99
2017-11-17T00:22:29.306Z,28.26
2017-11-17T00:23:29.286Z,27.62
2017-11-17T00:24:29.283Z,30.24
2017-11-17T00:25:29.270Z,26.92
2017-11-17T00:26:29.265Z,28.76
2017-11-17T00:27:29.262Z,28.02
2017-11-17T00:28:29.255Z,28.57
2017-11-17T00:29:29.241Z,29.99
2017-11-17T00:30:30.093Z,28.28
2017-11-17T00:31:29.233Z,29.54
2017-11-17T00:32:29.226Z,29.50
2017-11-17T00:33:29.222Z,29.61
2017-11-17T00:34:29.213Z,28.74
2017-11-17T00:35:29.214Z,29.50
2017-11-17T00:36:29.195Z,28.17
2017-11-17T00:37:29.192Z,28.56
2017-11-17T00:38:29.177Z,31.01
2017-11-17T00:39:29.166Z,30.00
2017-11-17T00:40:29.161Z,27.93
2017-11-17T00:41:29.152Z,30.96
2017-11-17T00:42:29.139Z,32.03
2017-11-17T00:43:29.134Z,30.11
2017-11-17T00:44:29.128Z,31.55
2017-11-17T00:45:29.127Z,29.45
2017-11-17T00:46:30.099Z,28.61
2017-11-17T00:47:29.101Z,31.13
2017-11-17T00:48:29.100Z,33.40
2017-11-17T00:49:29.096Z,32.62
2017-11-17T00:50:29.077Z,32.18
2017-11-17T00:51:29.072Z,31.40
2017-11-17T00:52:29.592Z,30.34
2017-11-17T00:53:29.599Z,30.55
2017-11-17T00:54:29.053Z,32.01
2017-11-17T00:55:29.047Z,33.81
2017-11-17T00:56:29.041Z,31.00
2017-11-17T00:57:29.033Z,34.05
2017-11-17T00:58:29.020Z,32.71
2017-11-17T00:59:29.011Z,32.26
2017-11-17T01:00:29.014Z,32.17
2017-11-17T01:01:29.018Z,31.00
2017-11-17T01:02:28.995Z,32.35
2017-11-17T01:03:28.983Z,31.13
2017-11-17T01:04:28.974Z,31.37
2017-11-17T01:05:28.965Z,31.06
2017-11-17T01:06:28.957Z,32.01
2017-11-17T01:07:28.948Z,31.52
2017-11-17T01:08:28.945Z,29.84
2017-11-17T01:09:28.933Z,31.40
2017-11-17T01:10:28.938Z,30.78
2017-11-17T01:11:29.608Z,31.21
2017-11-17T01:12:28.908Z,31.11
2017-11-17T01:13:28.906Z,33.06
2017-11-17T01:14:28.904Z,33.68
2017-11-17T01:15:28.889Z,35.07
2017-11-17T01:16:28.888Z,32.13
2017-11-17T01:17:28.879Z,31.87
2017-11-17T01:18:28.861Z,33.76
2017-11-17T01:19:28.852Z,32.52
2017-11-17T01:20:28.850Z,30.38
2017-11-17T01:21:28.841Z,32.16
2017-11-17T01:22:28.837Z,31.16
2017-11-17T01:23:28.830Z,32.70
2017-11-17T01:24:28.821Z,34.90
2017-11-17T01:25:28.803Z,32.80
2017-11-17T01:26:28.811Z,35.98
2017-11-17T01:27:28.796Z,32.52
2017-11-17T01:28:28.790Z,31.14
2017-11-17T01:29:28.779Z,30.88
2017-11-17T01:30:28.780Z,31.82
2017-11-17T01:31:28.752Z,29.04
2017-11-17T01:32:28.753Z,31.38
2017-11-17T01:33:28.745Z,32.41
2017-11-17T01:34:28.736Z,32.48
2017-11-17T01:35:28.730Z,32.17
2017-11-17T01:36:28.720Z,31.27
2017-11-17T01:37:28.718Z,31.97
2017-11-17T01:38:28.702Z,34.14
2017-11-17T01:39:28.696Z,31.78
2017-11-17T01:40:28.688Z,32.81
2017-11-17T01:41:28.683Z,30.25
2017-11-17T01:42:28.676Z,30.08
2017-11-17T01:43:28.676Z,30.69
2017-11-17T01:44:28.665Z,29.96
2017-11-17T01:45:28.665Z,30.88
2017-11-17T01:46:28.644Z,29.53
2017-11-17T01:47:28.650Z,33.66
2017-11-17T01:48:28.628Z,30.78
2017-11-17T01:49:28.623Z,30.07
2017-11-17T01:50:28.612Z,30.17
2017-11-17T01:51:28.602Z,29.68
2017-11-17T01:52:28.595Z,34.77
2017-11-17T01:53:28.591Z,35.04
2017-11-17T01:54:28.580Z,32.09
2017-11-17T01:55:28.577Z,32.77
2017-11-17T01:56:29.119Z,34.15
2017-11-17T01:57:28.564Z,31.30
2017-11-17T01:58:28.547Z,33.96
2017-11-17T01:59:28.540Z,33.43
2017-11-17T02:00:28.542Z,34.24
2017-11-17T02:01:28.525Z,33.47
2017-11-17T02:02:28.523Z,33.28
2017-11-17T02:03:28.504Z,30.98
2017-11-17T02:04:28.538Z,33.43
2017-11-17T02:04:40.496Z,1.31
2017-11-17T02:06:28.487Z,32.18
2017-11-17T02:07:28.472Z,33.35
2017-11-17T02:08:28.472Z,31.22
2017-11-17T02:09:28.464Z,32.79
2017-11-17T02:10:28.455Z,31.51
2017-11-17T02:11:28.451Z,31.28
2017-11-17T02:12:28.442Z,32.43
2017-11-17T02:13:28.434Z,32.88
2017-11-17T02:14:28.433Z,32.78
2017-11-17T02:15:28.414Z,32.84
2017-11-17T02:16:28.421Z,34.34
2017-11-17T02:17:28.392Z,34.78
2017-11-17T02:18:28.396Z,38.74
2017-11-17T02:19:28.383Z,33.48
2017-11-17T02:20:28.381Z,33.20
2017-11-17T02:21:28.365Z,31.42
2017-11-17T02:22:28.362Z,36.32
2017-11-17T02:23:28.351Z,32.68
2017-11-17T02:24:28.347Z,34.32
2017-11-17T02:25:28.332Z,33.59
2017-11-17T02:26:28.331Z,29.84
2017-11-17T02:27:28.322Z,32.12
2017-11-17T02:28:28.316Z,33.10
2017-11-17T02:29:28.306Z,31.84
2017-11-17T02:30:28.295Z,32.26
2017-11-17T02:31:28.281Z,31.92
2017-11-17T02:32:28.283Z,32.08
2017-11-17T02:33:28.284Z,32.11
2017-11-17T02:34:28.262Z,30.72
2017-11-17T02:35:28.261Z,29.83
2017-11-17T02:36:28.250Z,34.15
2017-11-17T02:37:28.246Z,35.54
2017-11-17T02:38:28.235Z,32.19
2017-11-17T02:39:28.230Z,33.26
2017-11-17T02:40:28.221Z,38.35
2017-11-17T02:41:28.212Z,34.28
2017-11-17T02:42:28.206Z,32.73
2017-11-17T02:43:31.134Z,42.27
2017-11-17T02:44:28.191Z,48.76
2017-11-17T02:45:28.176Z,50.01
2017-11-17T02:46:28.170Z,48.29
2017-11-17T02:47:28.161Z,41.14
2017-11-17T02:48:28.157Z,38.18
2017-11-17T02:49:28.150Z,34.32
2017-11-17T02:50:28.641Z,33.90
2017-11-17T02:51:28.132Z,34.15
2017-11-17T02:52:28.129Z,35.43
2017-11-17T02:53:28.108Z,35.79
2017-11-17T02:54:28.648Z,36.55
2017-11-17T02:55:28.648Z,37.61
2017-11-17T02:56:28.088Z,37.70
2017-11-17T02:57:28.652Z,35.79
2017-11-17T02:58:28.077Z,36.10
2017-11-17T02:59:28.644Z,37.46
2017-11-17T03:00:28.071Z,36.30
2017-11-17T03:01:28.054Z,36.99
2017-11-17T03:02:28.044Z,37.76
2017-11-17T03:03:28.033Z,36.04
2017-11-17T03:04:28.029Z,38.30
2017-11-17T03:05:28.653Z,38.91
2017-11-17T03:06:28.017Z,37.76
2017-11-17T03:07:28.008Z,37.06
2017-11-17T03:08:28.657Z,37.45
2017-11-17T03:09:27.991Z,38.18
2017-11-17T03:10:27.981Z,38.36
2017-11-17T03:11:27.975Z,34.66
2017-11-17T03:12:27.974Z,35.69
2017-11-17T03:13:27.960Z,36.20
2017-11-17T03:14:27.951Z,37.38
2017-11-17T03:15:27.944Z,38.89
2017-11-17T03:16:27.940Z,36.95
2017-11-17T03:17:27.928Z,37.21
2017-11-17T03:18:28.645Z,35.90
2017-11-17T03:19:27.918Z,37.01
2017-11-17T03:20:27.907Z,38.83
2017-11-17T03:21:27.895Z,38.98
2017-11-17T03:22:27.887Z,40.23
2017-11-17T03:23:27.878Z,41.64
2017-11-17T03:24:27.869Z,39.94
2017-11-17T03:25:28.655Z,37.03
2017-11-17T03:26:28.659Z,38.16
2017-11-17T03:27:27.851Z,39.02
2017-11-17T03:28:27.856Z,38.97
2017-11-17T03:29:27.841Z,43.27
2017-11-17T03:30:27.825Z,42.98
2017-11-17T03:31:27.829Z,41.50
2017-11-17T03:32:27.815Z,39.13
2017-11-17T03:33:27.812Z,38.16
2017-11-17T03:34:27.813Z,40.88
2017-11-17T03:35:27.799Z,38.54
2017-11-17T03:36:27.782Z,42.02
2017-11-17T03:37:27.773Z,39.77
2017-11-17T03:38:27.758Z,38.32
2017-11-17T03:39:27.758Z,42.70
2017-11-17T03:40:27.752Z,40.52
2017-11-17T03:41:27.752Z,41.80
2017-11-17T03:42:27.727Z,43.08
2017-11-17T03:43:27.724Z,40.96
2017-11-17T03:44:27.724Z,39.98
2017-11-17T03:45:27.711Z,38.11
2017-11-17T03:46:27.698Z,38.54
2017-11-17T03:47:27.693Z,39.14
2017-11-17T03:48:27.685Z,38.82
2017-11-17T03:49:27.678Z,38.84
2017-11-17T03:50:27.675Z,40.13
2017-11-17T03:51:27.668Z,42.34
2017-11-17T03:52:27.667Z,37.96
2017-11-17T03:53:27.666Z,38.87
2017-11-17T03:54:27.638Z,41.59
2017-11-17T03:55:27.623Z,40.76
2017-11-17T03:56:27.635Z,43.24
2017-11-17T03:57:27.620Z,42.60
2017-11-17T03:58:27.607Z,41.24
2017-11-17T03:59:27.598Z,42.56
2017-11-17T04:00:27.593Z,44.21
2017-11-17T04:01:27.576Z,41.54
2017-11-17T04:02:27.584Z,40.67
2017-11-17T04:03:27.575Z,43.86
2017-11-17T04:04:28.178Z,38.32
2017-11-17T04:05:27.560Z,42.02
2017-11-17T04:06:27.542Z,40.41
2017-11-17T04:07:27.541Z,41.98
2017-11-17T04:08:27.529Z,39.74
2017-11-17T04:09:27.526Z,38.32
2017-11-17T04:10:27.510Z,41.96
2017-11-17T04:11:27.505Z,41.06
2017-11-17T04:12:27.508Z,39.57
2017-11-17T04:13:27.494Z,38.77
2017-11-17T04:14:27.485Z,40.74
2017-11-17T04:15:30.185Z,39.10
2017-11-17T04:16:27.470Z,36.82
2017-11-17T04:17:27.458Z,36.12
2017-11-17T04:18:27.454Z,33.36
2017-11-17T04:19:27.452Z,36.43
2017-11-17T04:20:27.442Z,37.32
2017-11-17T04:21:27.431Z,37.73
2017-11-17T04:22:27.412Z,39.01
2017-11-17T04:23:27.408Z,40.03
2017-11-17T04:24:27.416Z,38.45
2017-11-17T04:25:30.178Z,37.66
2017-11-17T04:26:27.393Z,38.95
2017-11-17T04:27:27.398Z,36.09
2017-11-17T04:28:27.373Z,37.53
2017-11-17T04:29:27.366Z,35.89
2017-11-17T04:30:27.363Z,37.98
2017-11-17T04:31:27.352Z,34.54
2017-11-17T04:32:27.343Z,39.53
2017-11-17T04:33:27.351Z,38.12
2017-11-17T04:34:27.328Z,37.17
2017-11-17T04:35:27.327Z,37.48
2017-11-17T04:36:27.318Z,38.96
2017-11-17T04:37:27.302Z,36.62
2017-11-17T04:38:27.297Z,37.93
2017-11-17T04:39:27.284Z,36.80
2017-11-17T04:40:27.276Z,38.01
2017-11-17T04:41:27.275Z,35.37
2017-11-17T04:42:27.261Z,34.65
2017-11-17T04:43:27.255Z,36.37
2017-11-17T04:44:27.248Z,35.66
2017-11-17T04:45:27.239Z,35.84
2017-11-17T04:46:27.233Z,36.52
2017-11-17T04:47:27.224Z,33.84
2017-11-17T04:48:27.224Z,34.44
2017-11-17T04:49:27.204Z,35.24
2017-11-17T04:50:27.209Z,37.96
2017-11-17T04:51:27.196Z,36.42
2017-11-17T04:52:27.191Z,35.98
2017-11-17T04:53:27.184Z,37.86
2017-11-17T04:54:27.169Z,43.16
2017-11-17T04:55:27.161Z,36.04
2017-11-17T04:56:27.159Z,36.28
2017-11-17T04:57:27.166Z,35.03
2017-11-17T04:58:27.146Z,36.32
2017-11-17T04:59:27.136Z,37.17
2017-11-17T05:00:27.124Z,36.61
2017-11-17T05:01:27.113Z,37.28
2017-11-17T05:02:27.105Z,36.10
2017-11-17T05:03:27.108Z,38.27
2017-11-17T05:04:27.090Z,36.06
2017-11-17T05:05:27.087Z,36.72
2017-11-17T05:06:27.080Z,36.93
2017-11-17T05:07:27.070Z,37.87
2017-11-17T05:08:27.065Z,41.64
2017-11-17T05:09:27.689Z,37.84
2017-11-17T05:10:27.044Z,37.42
2017-11-17T05:11:27.040Z,41.01
2017-11-17T05:12:27.032Z,37.74
2017-11-17T05:13:27.021Z,39.86
2017-11-17T05:14:27.023Z,42.91
2017-11-17T05:15:27.016Z,41.28
2017-11-17T05:16:27.005Z,41.91
2017-11-17T05:17:27.711Z,41.24
2017-11-17T05:18:26.981Z,42.47
2017-11-17T05:19:26.979Z,41.34
2017-11-17T05:20:26.980Z,43.28
2017-11-17T05:21:26.963Z,41.87
2017-11-17T05:22:26.956Z,42.37
2017-11-17T05:23:26.979Z,42.87
2017-11-17T05:24:26.961Z,44.56
2017-11-17T05:25:26.932Z,44.74
2017-11-17T05:26:26.921Z,46.68
2017-11-17T05:27:26.911Z,45.74
2017-11-17T05:28:26.906Z,47.43
2017-11-17T05:29:26.893Z,42.01
2017-11-17T05:30:26.890Z,46.28
2017-11-17T05:31:26.880Z,52.32
2017-11-17T05:32:26.873Z,48.43
2017-11-17T05:33:26.868Z,47.20
2017-11-17T05:34:26.860Z,48.89
2017-11-17T05:35:26.853Z,47.71
2017-11-17T05:36:26.850Z,51.00
2017-11-17T05:37:26.837Z,47.91
2017-11-17T05:38:26.830Z,51.86
2017-11-17T05:39:26.824Z,52.50
2017-11-17T05:40:26.823Z,47.80
2017-11-17T05:41:26.809Z,47.66
2017-11-17T05:42:26.796Z,53.04
2017-11-17T05:43:26.794Z,52.50
2017-11-17T05:44:26.781Z,50.89
2017-11-17T05:45:26.769Z,49.46
2017-11-17T05:46:26.763Z,45.66
2017-11-17T05:47:26.753Z,51.61
2017-11-17T05:48:26.752Z,50.13
2017-11-17T05:49:26.735Z,50.13
2017-11-17T05:50:26.738Z,51.47
2017-11-17T05:51:26.728Z,54.74
2017-11-17T05:52:26.717Z,54.26
2017-11-17T05:53:26.713Z,53.88
2017-11-17T05:54:26.705Z,50.58
2017-11-17T05:55:26.696Z,49.79
2017-11-17T05:56:26.695Z,50.84
2017-11-17T05:57:26.679Z,52.15
2017-11-17T05:58:26.668Z,51.29
2017-11-17T05:59:26.662Z,54.05
2017-11-17T06:00:26.661Z,49.82
2017-11-17T06:01:26.645Z,51.16
2017-11-17T06:02:26.638Z,50.41
2017-11-17T06:03:26.625Z,51.11
2017-11-17T06:04:26.624Z,52.24
2017-11-17T06:05:26.624Z,51.63
2017-11-17T06:06:26.602Z,60.56
2017-11-17T06:07:26.601Z,54.97
2017-11-17T06:08:26.593Z,50.01
2017-11-17T06:09:26.583Z,47.18
2017-11-17T06:10:26.575Z,47.62
2017-11-17T06:11:26.559Z,51.33
2017-11-17T06:12:26.554Z,49.92
2017-11-17T06:13:26.550Z,50.05
2017-11-17T06:14:26.551Z,47.26
2017-11-17T06:15:26.540Z,49.38
2017-11-17T06:16:26.527Z,50.44
2017-11-17T06:17:26.521Z,50.95
2017-11-17T06:18:26.509Z,50.83
2017-11-17T06:19:26.499Z,48.15
2017-11-17T06:20:26.496Z,53.88
2017-11-17T06:21:26.529Z,51.27
2017-11-17T06:22:26.475Z,49.75
2017-11-17T06:23:26.468Z,46.36
2017-11-17T06:24:26.461Z,48.71
2017-11-17T06:25:26.453Z,47.84
2017-11-17T06:26:26.444Z,49.50
2017-11-17T06:27:26.436Z,48.20
2017-11-17T06:28:26.444Z,52.17
2017-11-17T06:29:26.421Z,49.40
2017-11-17T06:30:26.577Z,49.88
2017-11-17T06:31:26.408Z,52.84
2017-11-17T06:32:26.425Z,49.52
2017-11-17T06:33:26.394Z,50.03
2017-11-17T06:34:26.381Z,48.78
2017-11-17T06:35:26.378Z,50.53
2017-11-17T06:36:26.391Z,45.74
2017-11-17T06:37:26.363Z,48.42
2017-11-17T06:38:26.349Z,50.54
2017-11-17T06:39:26.341Z,53.04
2017-11-17T06:40:26.334Z,52.03
2017-11-17T06:41:26.330Z,50.54
2017-11-17T06:42:26.334Z,55.92
2017-11-17T06:43:26.312Z,53.11
2017-11-17T06:44:26.301Z,50.10
2017-11-17T06:45:26.304Z,50.02
2017-11-17T06:46:26.300Z,47.73
2017-11-17T06:47:26.274Z,49.60
2017-11-17T06:48:26.280Z,54.29
2017-11-17T06:49:26.267Z,51.22
2017-11-17T06:50:26.259Z,49.27
2017-11-17T06:51:26.272Z,50.70
2017-11-17T06:52:27.236Z,47.66
2017-11-17T06:53:26.238Z,49.85
2017-11-17T06:54:26.223Z,50.33
2017-11-17T06:55:26.218Z,49.60
2017-11-17T06:56:26.218Z,50.50
2017-11-17T06:57:26.194Z,49.34
2017-11-17T06:58:26.200Z,48.10
2017-11-17T06:59:26.188Z,51.73
2017-11-17T07:00:26.179Z,50.07
2017-11-17T07:01:26.406Z,49.60
2017-11-17T07:02:26.164Z,50.43
2017-11-17T07:03:26.165Z,50.73
2017-11-17T07:04:26.150Z,52.25
2017-11-17T07:05:26.137Z,46.40
2017-11-17T07:06:26.138Z,48.26
2017-11-17T07:07:26.131Z,49.17
2017-11-17T07:08:26.116Z,48.25
2017-11-17T07:09:26.118Z,48.76
2017-11-17T07:10:26.102Z,51.07
2017-11-17T07:11:26.099Z,48.80
2017-11-17T07:12:26.085Z,47.72
2017-11-17T07:13:26.083Z,47.70
2017-11-17T07:14:26.075Z,44.86
2017-11-17T07:15:26.065Z,47.28
2017-11-17T07:16:26.053Z,48.14
2017-11-17T07:17:26.740Z,46.11
2017-11-17T07:18:26.350Z,48.14
2017-11-17T07:19:27.522Z,50.54
2017-11-17T07:20:26.061Z,47.84
2017-11-17T07:21:42.006Z,49.94
2017-11-17T07:22:51.436Z,46.45
2017-11-17T07:24:09.349Z,44.74
2017-11-17T07:24:36.713Z,53.82
2017-11-17T07:25:36.591Z,47.12
2017-11-17T07:26:38.114Z,45.35
2017-11-17T07:27:37.034Z,44.82
2017-11-17T07:28:36.596Z,45.78
2017-11-17T07:29:36.438Z,48.94
2017-11-17T07:30:36.876Z,47.48
2017-11-17T07:31:36.481Z,46.90
2017-11-17T07:32:36.467Z,48.78
2017-11-17T07:33:37.182Z,51.47
2017-11-17T07:34:38.048Z,54.65
2017-11-17T07:37:48.081Z,55.73
2017-11-17T07:38:47.481Z,55.60
2017-11-17T07:41:31.836Z,53.96
2017-11-17T07:42:32.345Z,52.86
2017-11-17T07:43:32.955Z,51.79
2017-11-17T07:44:32.356Z,50.20
2017-11-17T07:45:31.758Z,53.46
2017-11-17T07:46:31.741Z,52.72
2017-11-17T07:47:31.736Z,56.10
2017-11-17T07:48:31.727Z,55.88
2017-11-17T07:49:31.741Z,51.30
2017-11-17T07:50:31.709Z,50.51
2017-11-17T07:51:31.714Z,52.29
2017-11-17T07:52:31.698Z,52.12
2017-11-17T07:53:31.691Z,52.66
2017-11-17T07:54:31.684Z,54.81
2017-11-17T07:55:31.678Z,59.62
2017-11-17T07:56:31.681Z,59.36
2017-11-17T07:57:31.667Z,54.08
2017-11-17T07:58:31.652Z,50.88
2017-11-17T07:59:31.647Z,53.46
2017-11-17T08:00:31.646Z,49.30
2017-11-17T08:01:31.643Z,48.76
2017-11-17T08:02:31.624Z,50.62
2017-11-17T08:03:31.628Z,53.50
2017-11-17T08:04:31.612Z,50.56
2017-11-17T08:05:31.604Z,51.42
2017-11-17T08:06:31.597Z,55.36
2017-11-17T08:07:31.588Z,59.76
2017-11-17T08:08:31.582Z,57.43
2017-11-17T08:09:31.597Z,60.58
2017-11-17T08:10:31.566Z,51.27
2017-11-17T08:11:31.560Z,55.65
2017-11-17T08:12:31.550Z,51.10
2017-11-17T08:15:55.808Z,53.26
2017-11-17T08:16:54.670Z,52.40
2017-11-17T08:20:00.873Z,67.44
2017-11-17T08:22:56.762Z,67.01
2017-11-17T08:23:56.715Z,73.08
2017-11-17T08:26:41.915Z,75.46
2017-11-17T08:27:41.650Z,73.25
2017-11-17T08:30:24.462Z,68.76
2017-11-17T08:31:24.426Z,69.69
2017-11-17T08:34:07.831Z,58.78
2017-11-17T08:35:07.782Z,62.76
2017-11-17T08:37:54.221Z,74.22
2017-11-17T08:38:53.647Z,74.84
2017-11-17T08:41:38.029Z,67.98
2017-11-17T08:42:38.013Z,74.52
2017-11-17T08:45:21.392Z,73.16
2017-11-17T08:46:21.355Z,72.65
2017-11-17T08:49:05.775Z,78.41
2017-11-17T08:50:05.708Z,74.80
2017-11-17T08:52:50.105Z,67.26
2017-11-17T08:53:50.059Z,65.48
2017-11-17T08:56:34.443Z,68.32
2017-11-17T08:57:34.414Z,62.80
2017-11-17T08:58:34.402Z,64.88
2017-11-17T08:59:34.392Z,69.11
2017-11-17T09:00:34.413Z,68.65
2017-11-17T09:01:34.375Z,70.94
2017-11-17T09:02:34.373Z,66.18
2017-11-17T09:03:34.366Z,66.83
2017-11-17T09:04:34.356Z,64.38
2017-11-17T09:05:34.349Z,65.82
2017-11-17T09:06:34.343Z,65.00
2017-11-17T09:07:34.356Z,68.95
2017-11-17T09:08:34.331Z,66.49
2017-11-17T09:09:34.317Z,70.63
2017-11-17T09:10:34.314Z,72.46
2017-11-17T09:11:34.309Z,68.88
2017-11-17T09:12:34.297Z,65.45
2017-11-17T09:13:34.287Z,66.49
2017-11-17T09:14:34.293Z,73.77
2017-11-17T09:15:34.277Z,77.18
2017-11-17T09:16:34.262Z,74.46
2017-11-17T09:17:36.993Z,65.74
2017-11-17T09:18:34.252Z,67.02
2017-11-17T09:19:34.245Z,74.59
2017-11-17T09:20:34.241Z,64.38
2017-11-17T09:21:34.237Z,59.81
2017-11-17T09:22:34.220Z,60.71
2017-11-17T09:23:34.217Z,66.63
2017-11-17T09:24:34.211Z,61.39
2017-11-17T09:25:34.201Z,56.52
2017-11-17T09:26:34.212Z,62.76
2017-11-17T09:27:34.186Z,66.37
2017-11-17T09:28:35.004Z,63.16
2017-11-17T09:29:34.186Z,61.72
2017-11-17T09:30:34.163Z,62.67
2017-11-17T09:31:34.170Z,60.67
2017-11-17T09:32:34.997Z,63.30
2017-11-17T09:33:34.141Z,59.91
2017-11-17T09:34:35.009Z,56.16
2017-11-17T09:35:34.129Z,60.11
2017-11-17T09:36:34.130Z,64.27
2017-11-17T09:37:37.010Z,58.94
2017-11-17T09:38:34.107Z,60.80
2017-11-17T09:39:34.102Z,59.16
2017-11-17T09:40:34.098Z,59.62
2017-11-17T09:41:34.079Z,55.78
2017-11-17T09:42:34.079Z,60.72
2017-11-17T09:43:34.070Z,62.92
2017-11-17T09:44:34.065Z,57.05
2017-11-17T09:45:34.057Z,54.80
2017-11-17T09:46:34.045Z,55.31
2017-11-17T09:47:34.042Z,58.30
2017-11-17T09:48:34.034Z,57.46
2017-11-17T09:49:34.020Z,56.53
2017-11-17T09:50:34.018Z,60.70
2017-11-17T09:51:34.017Z,60.58
2017-11-17T09:52:34.010Z,63.10
2017-11-17T09:53:34.009Z,61.24
2017-11-17T09:54:33.999Z,57.71
2017-11-17T09:55:33.991Z,60.89
2017-11-17T09:55:45.986Z,2.32
2017-11-17T09:57:34.510Z,56.56
2017-11-17T09:58:33.975Z,53.68
2017-11-17T09:59:33.961Z,54.54
2017-11-17T10:00:33.955Z,51.86
2017-11-17T10:01:33.941Z,48.69
2017-11-17T10:02:33.948Z,52.02
2017-11-17T10:03:33.932Z,51.38
2017-11-17T10:04:33.925Z,48.16
2017-11-17T10:05:33.925Z,47.96
2017-11-17T10:06:33.915Z,49.16
2017-11-17T10:07:33.906Z,48.31
2017-11-17T10:08:33.913Z,47.80
2017-11-17T10:09:38.430Z,44.71
2017-11-17T10:10:33.895Z,50.02
2017-11-17T10:11:33.884Z,50.43
2017-11-17T10:12:33.875Z,48.41
2017-11-17T10:13:33.868Z,46.48
2017-11-17T10:14:33.861Z,47.78
2017-11-17T10:15:33.856Z,44.14
2017-11-17T10:16:33.858Z,45.83
2017-11-17T10:17:33.836Z,41.22
2017-11-17T10:18:33.839Z,44.80
2017-11-17T10:19:33.829Z,47.05
2017-11-17T10:20:33.832Z,41.32
2017-11-17T10:21:33.821Z,43.78
2017-11-17T10:22:33.960Z,43.00
2017-11-17T10:23:33.811Z,46.44
2017-11-17T10:24:34.432Z,50.38
2017-11-17T10:25:33.965Z,52.20
2017-11-17T10:26:33.788Z,56.49
2017-11-17T10:27:33.822Z,50.95
2017-11-17T10:28:33.774Z,50.89
2017-11-17T10:29:33.853Z,52.58
2017-11-17T10:30:33.896Z,50.65
2017-11-17T10:31:33.767Z,46.19
2017-11-17T10:32:33.753Z,50.96
2017-11-17T10:33:33.748Z,53.20
2017-11-17T10:34:33.738Z,48.14
2017-11-17T10:35:33.727Z,48.08
2017-11-17T10:36:33.728Z,50.06
2017-11-17T10:37:34.532Z,49.27
2017-11-17T10:38:33.715Z,50.34
2017-11-17T10:39:33.710Z,52.14
2017-11-17T10:40:33.705Z,48.72
2017-11-17T10:41:33.703Z,50.60
2017-11-17T10:42:34.540Z,47.79
2017-11-17T10:43:33.682Z,44.76
2017-11-17T10:44:33.676Z,46.76
2017-11-17T10:45:33.664Z,54.52
2017-11-17T10:46:33.656Z,47.37
2017-11-17T10:47:36.533Z,45.22
2017-11-17T10:48:33.655Z,47.55
2017-11-17T10:49:33.650Z,50.82
2017-11-17T10:50:33.638Z,51.74
2017-11-17T10:51:36.549Z,47.56
2017-11-17T10:52:33.642Z,44.74
2017-11-17T10:53:33.628Z,47.94
2017-11-17T10:54:33.617Z,44.68
2017-11-17T10:55:33.619Z,44.79
2017-11-17T10:56:33.594Z,49.83
2017-11-17T10:57:33.592Z,47.46
2017-11-17T10:58:33.584Z,48.45
2017-11-17T10:59:33.580Z,46.98
2017-11-17T11:00:33.574Z,50.89
2017-11-17T11:01:33.570Z,46.06
2017-11-17T11:02:33.564Z,48.75
2017-11-17T11:03:33.557Z,43.23
2017-11-17T11:04:33.555Z,45.66
2017-11-17T11:05:33.550Z,50.58
2017-11-17T11:06:33.542Z,46.44
2017-11-17T11:07:33.540Z,44.95
2017-11-17T11:08:33.566Z,45.65
2017-11-17T11:09:33.518Z,43.08
2017-11-17T11:10:33.512Z,43.52
2017-11-17T11:11:33.501Z,47.99
2017-11-17T11:12:33.496Z,51.46
2017-11-17T11:13:33.492Z,44.65
2017-11-17T11:14:33.492Z,42.18
2017-11-17T11:15:33.480Z,49.66
2017-11-17T11:16:33.474Z,40.82
2017-11-17T11:17:33.471Z,45.02
2017-11-17T11:18:33.466Z,42.44
2017-11-17T11:19:33.459Z,40.76
2017-11-17T11:20:33.448Z,40.90
2017-11-17T11:21:33.439Z,41.99
2017-11-17T11:22:33.435Z,45.90
2017-11-17T11:23:33.446Z,42.68
2017-11-17T11:24:33.919Z,45.63
2017-11-17T11:25:33.705Z,48.08
2017-11-17T11:26:40.565Z,44.65
2017-11-17T11:27:33.852Z,47.85
2017-11-17T11:28:33.661Z,52.20
2017-11-17T11:29:33.389Z,48.97
2017-11-17T11:30:33.471Z,51.67
2017-11-17T11:31:33.374Z,52.73
2017-11-17T11:32:33.367Z,51.45
2017-11-17T11:33:33.366Z,49.27
2017-11-17T11:34:33.610Z,53.27
2017-11-17T11:35:33.854Z,54.34
2017-11-17T11:36:33.704Z,54.75
2017-11-17T11:37:33.330Z,63.10
2017-11-17T11:38:33.319Z,52.12
2017-11-17T11:39:33.972Z,55.44
2017-11-17T11:40:33.303Z,53.44
2017-11-17T11:41:34.269Z,50.85
2017-11-17T11:42:33.288Z,55.22
2017-11-17T11:43:33.408Z,57.36
2017-11-17T11:44:33.520Z,52.13
2017-11-17T11:45:34.221Z,54.03
2017-11-17T11:46:34.484Z,52.30
2017-11-17T11:47:33.378Z,51.18
2017-11-17T11:48:33.411Z,48.17
2017-11-17T11:49:33.243Z,46.77
2017-11-17T11:50:34.543Z,46.30
2017-11-17T11:51:34.210Z,44.99
2017-11-17T11:52:34.174Z,43.42
2017-11-17T11:53:34.857Z,42.11
2017-11-17T11:54:34.725Z,46.06
2017-11-17T11:55:33.466Z,45.70
2017-11-17T11:56:33.213Z,46.50
2017-11-17T11:57:33.185Z,52.63
2017-11-17T11:58:34.635Z,49.92
2017-11-17T11:59:33.170Z,50.61
2017-11-17T12:00:33.161Z,50.63
2017-11-17T12:01:33.160Z,48.53
2017-11-17T12:02:33.152Z,47.16
2017-11-17T12:03:33.144Z,47.79
2017-11-17T12:04:33.135Z,45.72
2017-11-17T12:05:33.125Z,42.35
2017-11-17T12:06:33.120Z,44.69
2017-11-17T12:07:33.128Z,41.87
2017-11-17T12:08:33.102Z,42.50
2017-11-17T12:09:33.097Z,41.85
2017-11-17T12:10:33.090Z,48.53
2017-11-17T12:11:33.093Z,42.12
2017-11-17T12:12:33.074Z,45.74
2017-11-17T12:13:33.065Z,44.16
2017-11-17T12:14:33.058Z,42.18
2017-11-17T12:15:33.053Z,42.99
2017-11-17T12:16:33.055Z,38.08
2017-11-17T12:17:33.036Z,35.24
2017-11-17T12:18:33.047Z,43.71
2017-11-17T12:19:33.019Z,37.73
2017-11-17T12:20:33.020Z,36.99
2017-11-17T12:21:33.009Z,36.98
2017-11-17T12:22:32.997Z,38.99
2017-11-17T12:23:32.998Z,35.55
2017-11-17T12:24:32.994Z,36.42
2017-11-17T12:25:32.988Z,33.02
2017-11-17T12:26:32.967Z,36.24
2017-11-17T12:27:32.966Z,33.44
2017-11-17T12:28:33.575Z,34.83
2017-11-17T12:29:32.943Z,36.73
2017-11-17T12:30:32.964Z,37.32
2017-11-17T12:31:32.925Z,38.63
2017-11-17T12:32:32.941Z,35.89
2017-11-17T12:33:32.917Z,38.57
2017-11-17T12:34:32.914Z,35.88
2017-11-17T12:35:32.902Z,37.84
2017-11-17T12:36:35.579Z,38.25
2017-11-17T12:37:32.886Z,34.78
2017-11-17T12:38:32.887Z,35.20
2017-11-17T12:39:32.893Z,33.16
2017-11-17T12:40:32.872Z,34.04
2017-11-17T12:41:32.856Z,29.96
2017-11-17T12:42:32.851Z,30.06
2017-11-17T12:43:32.847Z,27.12
2017-11-17T12:44:33.226Z,26.39
2017-11-17T12:45:32.854Z,31.01
2017-11-17T12:46:32.843Z,31.68
2017-11-17T12:47:32.807Z,27.29
2017-11-17T12:48:32.829Z,27.71
2017-11-17T12:49:32.796Z,26.46
2017-11-17T12:50:32.826Z,29.97
2017-11-17T12:51:32.811Z,31.62
2017-11-17T12:52:32.800Z,31.42
2017-11-17T12:53:32.770Z,32.31
2017-11-17T12:54:32.768Z,30.75
2017-11-17T12:55:32.767Z,29.26
2017-11-17T12:56:32.745Z,28.84
2017-11-17T12:57:32.749Z,28.37
2017-11-17T12:58:32.741Z,27.17
2017-11-17T12:59:32.727Z,23.90
2017-11-17T13:00:32.735Z,22.50
2017-11-17T13:01:32.727Z,22.66
2017-11-17T13:02:32.703Z,27.92
2017-11-17T13:03:32.705Z,31.30
2017-11-17T13:04:32.704Z,32.12
2017-11-17T13:05:33.592Z,28.43
2017-11-17T13:06:32.695Z,25.67
2017-11-17T13:07:32.706Z,24.34
2017-11-17T13:08:32.691Z,27.03
2017-11-17T13:09:32.665Z,22.26
2017-11-17T13:10:32.660Z,22.08
2017-11-17T13:11:32.652Z,21.40
2017-11-17T13:12:33.595Z,23.56
2017-11-17T13:13:32.641Z,27.24
2017-11-17T13:14:32.623Z,25.48
2017-11-17T13:15:32.631Z,20.50
2017-11-17T13:16:32.621Z,21.30
2017-11-17T13:17:32.614Z,23.08
2017-11-17T13:18:32.598Z,22.91